sensor_id;sensor_type;location;lat;lon;timestamp;temperature;humidity
59007;DHT22;44792;52.760;6.726;2023-03-23T00:01:22;11.20;99.90
59007;DHT22;44792;52.760;6.726;2023-03-23T00:03:49;11.20;99.90
59007;DHT22;44792;52.760;6.726;2023-03-23T00:06:17;11.20;99.90
59007;DHT22;44792;52.760;6.726;2023-03-23T00:08:45;11.20;99.90
59007;DHT22;44792;52.760;6.726;2023-03-23T00:11:17;11.20;99.90
59007;DHT22;44792;52.760;6.726;2023-03-23T00:13:43;11.10;99.90
59007;DHT22;44792;52.760;6.726;2023-03-23T00:16:12;11.20;99.90
59007;DHT22;44792;52.760;6.726;2023-03-23T00:18:47;11.20;99.90
59007;DHT22;44792;52.760;6.726;2023-03-23T00:21:13;11.20;99.90
59007;DHT22;44792;52.760;6.726;2023-03-23T00:23:39;11.20;99.90
59007;DHT22;44792;52.760;6.726;2023-03-23T00:26:06;11.20;99.90
59007;DHT22;44792;52.760;6.726;2023-03-23T00:28:31;11.20;99.90
59007;DHT22;44792;52.760;6.726;2023-03-23T00:30:59;11.20;99.90
59007;DHT22;44792;52.760;6.726;2023-03-23T00:33:27;11.20;99.90
59007;DHT22;44792;52.760;6.726;2023-03-23T00:35:54;11.20;99.90
59007;DHT22;44792;52.760;6.726;2023-03-23T00:38:21;11.20;99.90
59007;DHT22;44792;52.760;6.726;2023-03-23T00:40:48;11.20;99.90
59007;DHT22;44792;52.760;6.726;2023-03-23T00:43:15;11.20;99.90
59007;DHT22;44792;52.760;6.726;2023-03-23T00:45:42;11.20;99.90
59007;DHT22;44792;52.760;6.726;2023-03-23T00:48:11;11.20;99.90
59007;DHT22;44792;52.760;6.726;2023-03-23T00:50:39;11.20;99.90
59007;DHT22;44792;52.760;6.726;2023-03-23T00:53:05;11.20;99.90
59007;DHT22;44792;52.760;6.726;2023-03-23T00:55:30;11.30;99.90
59007;DHT22;44792;52.760;6.726;2023-03-23T00:57:56;11.30;99.90
59007;DHT22;44792;52.760;6.726;2023-03-23T01:00:22;11.30;99.90
59007;DHT22;44792;52.760;6.726;2023-03-23T01:02:49;11.30;99.90
59007;DHT22;44792;52.760;6.726;2023-03-23T01:05:17;11.30;99.90
59007;DHT22;44792;52.760;6.726;2023-03-23T01:07:43;11.30;99.90
59007;DHT22;44792;52.760;6.726;2023-03-23T01:10:10;11.40;99.90
59007;DHT22;44792;52.760;6.726;2023-03-23T01:12:39;11.30;99.90
59007;DHT22;44792;52.760;6.726;2023-03-23T01:15:05;11.40;99.90
59007;DHT22;44792;52.760;6.726;2023-03-23T01:17:31;11.40;99.90
59007;DHT22;44792;52.760;6.726;2023-03-23T01:19:57;11.30;99.90
59007;DHT22;44792;52.760;6.726;2023-03-23T01:22:23;11.30;99.90
59007;DHT22;44792;52.760;6.726;2023-03-23T01:24:49;11.30;99.90
59007;DHT22;44792;52.760;6.726;2023-03-23T01:27:14;11.30;99.90
59007;DHT22;44792;52.760;6.726;2023-03-23T01:29:40;11.30;99.90
59007;DHT22;44792;52.760;6.726;2023-03-23T01:32:06;11.30;99.90
59007;DHT22;44792;52.760;6.726;2023-03-23T01:34:32;11.30;99.90
59007;DHT22;44792;52.760;6.726;2023-03-23T01:36:57;11.30;99.90
59007;DHT22;44792;52.760;6.726;2023-03-23T01:39:23;11.30;99.90
59007;DHT22;44792;52.760;6.726;2023-03-23T01:41:49;11.30;99.90
59007;DHT22;44792;52.760;6.726;2023-03-23T01:46:44;11.30;99.90
59007;DHT22;44792;52.760;6.726;2023-03-23T01:49:23;11.20;99.90
59007;DHT22;44792;52.760;6.726;2023-03-23T01:51:54;11.20;99.90
59007;DHT22;44792;52.760;6.726;2023-03-23T01:54:22;11.20;99.90
59007;DHT22;44792;52.760;6.726;2023-03-23T01:57:05;11.20;99.90
59007;DHT22;44792;52.760;6.726;2023-03-23T01:59:33;11.30;99.90
59007;DHT22;44792;52.760;6.726;2023-03-23T02:02:00;11.30;99.90
59007;DHT22;44792;52.760;6.726;2023-03-23T02:04:28;11.30;99.90
59007;DHT22;44792;52.760;6.726;2023-03-23T02:06:56;11.30;99.90
59007;DHT22;44792;52.760;6.726;2023-03-23T02:09:25;11.30;99.90
59007;DHT22;44792;52.760;6.726;2023-03-23T02:11:52;11.30;99.90
59007;DHT22;44792;52.760;6.726;2023-03-23T02:14:19;11.30;99.90
59007;DHT22;44792;52.760;6.726;2023-03-23T02:19:36;11.30;99.90
59007;DHT22;44792;52.760;6.726;2023-03-23T02:24:57;11.30;99.90
59007;DHT22;44792;52.760;6.726;2023-03-23T02:33:28;11.20;99.90
59007;DHT22;44792;52.760;6.726;2023-03-23T02:38:50;11.20;99.90
59007;DHT22;44792;52.760;6.726;2023-03-23T02:41:20;11.20;99.90
59007;DHT22;44792;52.760;6.726;2023-03-23T02:43:48;11.20;99.90
59007;DHT22;44792;52.760;6.726;2023-03-23T02:46:15;11.20;99.90
59007;DHT22;44792;52.760;6.726;2023-03-23T02:48:43;11.20;99.90
59007;DHT22;44792;52.760;6.726;2023-03-23T02:51:11;11.20;99.90
59007;DHT22;44792;52.760;6.726;2023-03-23T02:53:40;11.20;99.90
59007;DHT22;44792;52.760;6.726;2023-03-23T02:56:08;11.20;99.90
59007;DHT22;44792;52.760;6.726;2023-03-23T02:58:36;11.20;99.90
59007;DHT22;44792;52.760;6.726;2023-03-23T03:04:00;11.20;99.90
59007;DHT22;44792;52.760;6.726;2023-03-23T03:09:02;11.20;99.90
59007;DHT22;44792;52.760;6.726;2023-03-23T03:11:31;11.20;99.90
59007;DHT22;44792;52.760;6.726;2023-03-23T03:14:04;11.20;99.90
59007;DHT22;44792;52.760;6.726;2023-03-23T03:17:00;11.20;99.90
59007;DHT22;44792;52.760;6.726;2023-03-23T03:19:48;11.20;99.90
59007;DHT22;44792;52.760;6.726;2023-03-23T03:22:15;11.20;99.90
59007;DHT22;44792;52.760;6.726;2023-03-23T03:24:43;11.20;99.90
59007;DHT22;44792;52.760;6.726;2023-03-23T03:27:15;11.20;99.90
59007;DHT22;44792;52.760;6.726;2023-03-23T03:29:44;11.20;99.90
59007;DHT22;44792;52.760;6.726;2023-03-23T03:32:17;11.20;99.90
59007;DHT22;44792;52.760;6.726;2023-03-23T03:34:45;11.30;99.90
59007;DHT22;44792;52.760;6.726;2023-03-23T03:37:11;11.30;99.90
59007;DHT22;44792;52.760;6.726;2023-03-23T03:39:37;11.30;99.90
59007;DHT22;44792;52.760;6.726;2023-03-23T03:42:06;11.30;99.90
59007;DHT22;44792;52.760;6.726;2023-03-23T03:44:33;11.30;99.90
59007;DHT22;44792;52.760;6.726;2023-03-23T03:46:59;11.40;99.90
59007;DHT22;44792;52.760;6.726;2023-03-23T03:49:25;11.40;99.90
59007;DHT22;44792;52.760;6.726;2023-03-23T03:51:52;11.40;99.90
59007;DHT22;44792;52.760;6.726;2023-03-23T03:54:17;11.40;99.90
59007;DHT22;44792;52.760;6.726;2023-03-23T03:56:43;11.40;99.90
59007;DHT22;44792;52.760;6.726;2023-03-23T03:59:11;11.40;99.90
59007;DHT22;44792;52.760;6.726;2023-03-23T04:01:38;11.40;99.90
59007;DHT22;44792;52.760;6.726;2023-03-23T04:04:04;11.50;99.90
59007;DHT22;44792;52.760;6.726;2023-03-23T04:06:33;11.40;99.90
59007;DHT22;44792;52.760;6.726;2023-03-23T04:09:03;11.40;99.90
59007;DHT22;44792;52.760;6.726;2023-03-23T04:11:32;11.40;99.90
59007;DHT22;44792;52.760;6.726;2023-03-23T04:13:57;11.50;99.90
59007;DHT22;44792;52.760;6.726;2023-03-23T04:16:23;11.50;99.90
59007;DHT22;44792;52.760;6.726;2023-03-23T04:18:49;11.40;99.90
59007;DHT22;44792;52.760;6.726;2023-03-23T04:21:15;11.50;99.90
59007;DHT22;44792;52.760;6.726;2023-03-23T04:23:41;11.50;99.90
59007;DHT22;44792;52.760;6.726;2023-03-23T04:26:07;11.40;99.90
59007;DHT22;44792;52.760;6.726;2023-03-23T04:28:33;11.40;99.90
59007;DHT22;44792;52.760;6.726;2023-03-23T04:31:00;11.40;99.90
59007;DHT22;44792;52.760;6.726;2023-03-23T04:33:28;11.50;99.90
59007;DHT22;44792;52.760;6.726;2023-03-23T04:35:59;11.50;99.90
59007;DHT22;44792;52.760;6.726;2023-03-23T04:38:28;11.50;99.90
59007;DHT22;44792;52.760;6.726;2023-03-23T04:40:55;11.60;99.90
59007;DHT22;44792;52.760;6.726;2023-03-23T04:43:23;11.60;99.90
59007;DHT22;44792;52.760;6.726;2023-03-23T04:45:53;11.50;99.90
59007;DHT22;44792;52.760;6.726;2023-03-23T04:48:23;11.60;99.90
59007;DHT22;44792;52.760;6.726;2023-03-23T04:50:48;11.60;99.90
59007;DHT22;44792;52.760;6.726;2023-03-23T04:53:16;11.60;99.90
59007;DHT22;44792;52.760;6.726;2023-03-23T04:55:44;11.60;99.90
59007;DHT22;44792;52.760;6.726;2023-03-23T04:58:10;11.60;99.90
59007;DHT22;44792;52.760;6.726;2023-03-23T05:00:38;11.60;99.90
59007;DHT22;44792;52.760;6.726;2023-03-23T05:03:04;11.60;99.90
59007;DHT22;44792;52.760;6.726;2023-03-23T05:05:29;11.60;99.90
59007;DHT22;44792;52.760;6.726;2023-03-23T05:07:56;11.60;99.90
59007;DHT22;44792;52.760;6.726;2023-03-23T05:10:22;11.60;99.90
59007;DHT22;44792;52.760;6.726;2023-03-23T05:12:48;11.60;99.90
59007;DHT22;44792;52.760;6.726;2023-03-23T05:15:15;11.60;99.90
59007;DHT22;44792;52.760;6.726;2023-03-23T05:17:42;11.60;99.90
59007;DHT22;44792;52.760;6.726;2023-03-23T05:20:15;11.60;99.90
59007;DHT22;44792;52.760;6.726;2023-03-23T05:22:44;11.60;99.90
59007;DHT22;44792;52.760;6.726;2023-03-23T05:25:10;11.50;99.90
59007;DHT22;44792;52.760;6.726;2023-03-23T05:27:37;11.50;99.90
59007;DHT22;44792;52.760;6.726;2023-03-23T05:30:04;11.50;99.90
59007;DHT22;44792;52.760;6.726;2023-03-23T05:32:30;11.40;99.90
59007;DHT22;44792;52.760;6.726;2023-03-23T05:35:00;11.30;99.90
59007;DHT22;44792;52.760;6.726;2023-03-23T05:37:27;11.30;99.90
59007;DHT22;44792;52.760;6.726;2023-03-23T05:39:59;11.20;99.90
59007;DHT22;44792;52.760;6.726;2023-03-23T05:42:31;11.20;99.90
59007;DHT22;44792;52.760;6.726;2023-03-23T05:44:57;11.20;99.90
59007;DHT22;44792;52.760;6.726;2023-03-23T05:47:23;11.20;99.90
59007;DHT22;44792;52.760;6.726;2023-03-23T05:49:50;11.10;99.90
59007;DHT22;44792;52.760;6.726;2023-03-23T05:52:17;11.20;99.90
59007;DHT22;44792;52.760;6.726;2023-03-23T05:54:43;11.10;99.90
59007;DHT22;44792;52.760;6.726;2023-03-23T05:57:10;11.20;99.90
59007;DHT22;44792;52.760;6.726;2023-03-23T05:59:36;11.10;99.90
59007;DHT22;44792;52.760;6.726;2023-03-23T06:02:03;11.20;99.90
59007;DHT22;44792;52.760;6.726;2023-03-23T06:04:29;11.20;99.90
59007;DHT22;44792;52.760;6.726;2023-03-23T06:06:54;11.20;99.90
59007;DHT22;44792;52.760;6.726;2023-03-23T06:09:20;11.10;99.90
59007;DHT22;44792;52.760;6.726;2023-03-23T06:11:46;11.00;99.90
59007;DHT22;44792;52.760;6.726;2023-03-23T06:14:13;11.10;99.90
59007;DHT22;44792;52.760;6.726;2023-03-23T06:16:38;11.10;99.90
59007;DHT22;44792;52.760;6.726;2023-03-23T06:19:04;11.00;99.90
59007;DHT22;44792;52.760;6.726;2023-03-23T06:21:31;11.10;99.90
59007;DHT22;44792;52.760;6.726;2023-03-23T06:23:57;11.10;99.90
59007;DHT22;44792;52.760;6.726;2023-03-23T06:26:28;11.00;99.90
59007;DHT22;44792;52.760;6.726;2023-03-23T06:28:56;11.00;99.90
59007;DHT22;44792;52.760;6.726;2023-03-23T06:31:23;11.00;99.90
59007;DHT22;44792;52.760;6.726;2023-03-23T06:33:49;11.00;99.90
59007;DHT22;44792;52.760;6.726;2023-03-23T06:36:15;11.00;99.90
59007;DHT22;44792;52.760;6.726;2023-03-23T06:38:42;11.00;99.90
59007;DHT22;44792;52.760;6.726;2023-03-23T06:41:08;11.00;99.90
59007;DHT22;44792;52.760;6.726;2023-03-23T06:43:34;11.10;99.90
59007;DHT22;44792;52.760;6.726;2023-03-23T06:46:01;11.10;99.90
59007;DHT22;44792;52.760;6.726;2023-03-23T06:48:27;11.10;99.90
59007;DHT22;44792;52.760;6.726;2023-03-23T06:50:53;11.10;99.90
59007;DHT22;44792;52.760;6.726;2023-03-23T06:53:19;11.10;99.90
59007;DHT22;44792;52.760;6.726;2023-03-23T06:55:46;11.10;99.90
59007;DHT22;44792;52.760;6.726;2023-03-23T06:58:12;11.20;99.90
59007;DHT22;44792;52.760;6.726;2023-03-23T07:00:38;11.10;99.90
59007;DHT22;44792;52.760;6.726;2023-03-23T07:03:04;11.20;99.90
59007;DHT22;44792;52.760;6.726;2023-03-23T07:05:30;11.10;99.90
59007;DHT22;44792;52.760;6.726;2023-03-23T07:07:56;11.10;99.90
59007;DHT22;44792;52.760;6.726;2023-03-23T07:10:21;11.10;99.90
59007;DHT22;44792;52.760;6.726;2023-03-23T07:12:47;11.20;99.90
59007;DHT22;44792;52.760;6.726;2023-03-23T07:15:13;11.20;99.90
59007;DHT22;44792;52.760;6.726;2023-03-23T07:17:39;11.20;99.90
59007;DHT22;44792;52.760;6.726;2023-03-23T07:20:06;11.20;99.90
59007;DHT22;44792;52.760;6.726;2023-03-23T07:22:33;11.20;99.90
59007;DHT22;44792;52.760;6.726;2023-03-23T07:24:58;11.30;99.90
59007;DHT22;44792;52.760;6.726;2023-03-23T07:27:24;11.20;99.90
59007;DHT22;44792;52.760;6.726;2023-03-23T07:29:50;11.30;99.90
59007;DHT22;44792;52.760;6.726;2023-03-23T07:32:16;11.30;99.90
59007;DHT22;44792;52.760;6.726;2023-03-23T07:34:42;11.30;99.90
59007;DHT22;44792;52.760;6.726;2023-03-23T07:37:08;11.30;99.90
59007;DHT22;44792;52.760;6.726;2023-03-23T07:39:34;11.40;99.90
59007;DHT22;44792;52.760;6.726;2023-03-23T07:42:00;11.40;99.90
59007;DHT22;44792;52.760;6.726;2023-03-23T07:44:27;11.40;99.90
59007;DHT22;44792;52.760;6.726;2023-03-23T07:46:53;11.40;99.90
59007;DHT22;44792;52.760;6.726;2023-03-23T07:49:18;11.40;99.90
59007;DHT22;44792;52.760;6.726;2023-03-23T07:51:44;11.50;99.90
59007;DHT22;44792;52.760;6.726;2023-03-23T07:54:10;11.50;99.90
59007;DHT22;44792;52.760;6.726;2023-03-23T07:56:37;11.50;99.90
59007;DHT22;44792;52.760;6.726;2023-03-23T07:59:06;11.50;99.90
59007;DHT22;44792;52.760;6.726;2023-03-23T08:01:32;11.60;99.90
59007;DHT22;44792;52.760;6.726;2023-03-23T08:03:58;11.60;99.90
59007;DHT22;44792;52.760;6.726;2023-03-23T08:06:25;11.60;99.90
59007;DHT22;44792;52.760;6.726;2023-03-23T08:08:51;11.60;99.90
59007;DHT22;44792;52.760;6.726;2023-03-23T08:11:18;11.70;99.90
59007;DHT22;44792;52.760;6.726;2023-03-23T08:13:47;11.70;99.90
59007;DHT22;44792;52.760;6.726;2023-03-23T08:16:13;11.70;99.90
59007;DHT22;44792;52.760;6.726;2023-03-23T08:18:39;11.70;99.90
59007;DHT22;44792;52.760;6.726;2023-03-23T08:21:06;11.70;99.90
59007;DHT22;44792;52.760;6.726;2023-03-23T08:23:35;11.70;99.90
59007;DHT22;44792;52.760;6.726;2023-03-23T08:26:03;11.70;99.90
59007;DHT22;44792;52.760;6.726;2023-03-23T08:28:30;11.70;99.90
59007;DHT22;44792;52.760;6.726;2023-03-23T08:30:55;11.70;99.90
59007;DHT22;44792;52.760;6.726;2023-03-23T08:33:22;11.80;99.90
59007;DHT22;44792;52.760;6.726;2023-03-23T08:35:55;11.80;99.90
59007;DHT22;44792;52.760;6.726;2023-03-23T08:38:22;11.80;99.90
59007;DHT22;44792;52.760;6.726;2023-03-23T08:40:48;11.80;99.90
59007;DHT22;44792;52.760;6.726;2023-03-23T08:43:15;11.80;99.90
59007;DHT22;44792;52.760;6.726;2023-03-23T08:45:41;11.80;99.90
59007;DHT22;44792;52.760;6.726;2023-03-23T08:48:08;11.80;99.90
59007;DHT22;44792;52.760;6.726;2023-03-23T08:50:34;11.80;99.90
59007;DHT22;44792;52.760;6.726;2023-03-23T08:53:01;11.80;99.90
59007;DHT22;44792;52.760;6.726;2023-03-23T08:55:28;11.80;99.90
59007;DHT22;44792;52.760;6.726;2023-03-23T08:57:54;11.80;99.90
59007;DHT22;44792;52.760;6.726;2023-03-23T09:00:21;11.80;99.90
59007;DHT22;44792;52.760;6.726;2023-03-23T09:02:51;11.80;99.90
59007;DHT22;44792;52.760;6.726;2023-03-23T09:05:22;11.80;99.90
59007;DHT22;44792;52.760;6.726;2023-03-23T09:07:51;11.90;99.90
59007;DHT22;44792;52.760;6.726;2023-03-23T09:10:18;11.90;99.90
59007;DHT22;44792;52.760;6.726;2023-03-23T09:12:45;12.10;99.90
59007;DHT22;44792;52.760;6.726;2023-03-23T09:15:13;12.00;99.90
59007;DHT22;44792;52.760;6.726;2023-03-23T09:17:43;12.00;99.90
59007;DHT22;44792;52.760;6.726;2023-03-23T09:20:12;12.10;99.90
59007;DHT22;44792;52.760;6.726;2023-03-23T09:22:40;12.10;99.90
59007;DHT22;44792;52.760;6.726;2023-03-23T09:25:09;12.10;99.90
59007;DHT22;44792;52.760;6.726;2023-03-23T09:27:39;12.00;99.90
59007;DHT22;44792;52.760;6.726;2023-03-23T09:30:08;12.10;99.90
59007;DHT22;44792;52.760;6.726;2023-03-23T09:32:34;12.10;99.90
59007;DHT22;44792;52.760;6.726;2023-03-23T09:35:01;12.10;99.90
59007;DHT22;44792;52.760;6.726;2023-03-23T09:37:28;12.10;99.90
59007;DHT22;44792;52.760;6.726;2023-03-23T09:39:54;12.10;99.90
